sensor_id;sensor_type;location;lat;lon;timestamp;temperature;humidity
46356;DHT22;32066;49.474;11.106;2023-03-11T00:00:56;4.60;90.10
46356;DHT22;32066;49.474;11.106;2023-03-11T00:03:24;4.60;90.10
46356;DHT22;32066;49.474;11.106;2023-03-11T00:05:54;4.50;89.70
46356;DHT22;32066;49.474;11.106;2023-03-11T00:08:26;4.60;90.20
46356;DHT22;32066;49.474;11.106;2023-03-11T00:10:56;4.60;90.20
46356;DHT22;32066;49.474;11.106;2023-03-11T00:13:26;4.60;89.90
46356;DHT22;32066;49.474;11.106;2023-03-11T00:15:56;4.60;90.00
46356;DHT22;32066;49.474;11.106;2023-03-11T00:18:26;4.50;90.10
46356;DHT22;32066;49.474;11.106;2023-03-11T00:20:57;4.40;90.30
46356;DHT22;32066;49.474;11.106;2023-03-11T00:23:29;4.40;90.20
46356;DHT22;32066;49.474;11.106;2023-03-11T00:25:59;4.50;90.20
46356;DHT22;32066;49.474;11.106;2023-03-11T00:28:27;4.50;90.10
46356;DHT22;32066;49.474;11.106;2023-03-11T00:30:56;4.40;90.20
46356;DHT22;32066;49.474;11.106;2023-03-11T00:33:26;4.30;90.30
46356;DHT22;32066;49.474;11.106;2023-03-11T00:35:55;4.30;90.40
46356;DHT22;32066;49.474;11.106;2023-03-11T00:38:24;4.40;90.50
46356;DHT22;32066;49.474;11.106;2023-03-11T00:40:55;4.40;90.30
46356;DHT22;32066;49.474;11.106;2023-03-11T00:43:26;4.50;90.20
46356;DHT22;32066;49.474;11.106;2023-03-11T00:45:54;4.40;89.60
46356;DHT22;32066;49.474;11.106;2023-03-11T00:48:23;4.40;89.90
46356;DHT22;32066;49.474;11.106;2023-03-11T00:50:52;4.50;90.30
46356;DHT22;32066;49.474;11.106;2023-03-11T00:53:20;4.50;90.00
46356;DHT22;32066;49.474;11.106;2023-03-11T00:55:49;4.40;90.10
46356;DHT22;32066;49.474;11.106;2023-03-11T00:58:20;4.50;90.00
46356;DHT22;32066;49.474;11.106;2023-03-11T01:00:54;4.40;90.20
46356;DHT22;32066;49.474;11.106;2023-03-11T01:03:22;4.40;90.30
46356;DHT22;32066;49.474;11.106;2023-03-11T01:05:51;4.40;90.40
46356;DHT22;32066;49.474;11.106;2023-03-11T01:08:20;4.50;90.40
46356;DHT22;32066;49.474;11.106;2023-03-11T01:10:48;4.50;90.40
46356;DHT22;32066;49.474;11.106;2023-03-11T01:13:20;4.50;90.40
46356;DHT22;32066;49.474;11.106;2023-03-11T01:15:49;4.50;90.50
46356;DHT22;32066;49.474;11.106;2023-03-11T01:18:19;4.50;90.40
46356;DHT22;32066;49.474;11.106;2023-03-11T01:20:48;4.60;90.40
46356;DHT22;32066;49.474;11.106;2023-03-11T01:23:18;4.50;90.40
46356;DHT22;32066;49.474;11.106;2023-03-11T01:25:47;4.50;90.50
46356;DHT22;32066;49.474;11.106;2023-03-11T01:28:15;4.50;90.40
46356;DHT22;32066;49.474;11.106;2023-03-11T01:30:47;4.40;90.60
46356;DHT22;32066;49.474;11.106;2023-03-11T01:33:17;4.20;90.90
46356;DHT22;32066;49.474;11.106;2023-03-11T01:35:46;4.10;91.10
46356;DHT22;32066;49.474;11.106;2023-03-11T01:38:15;4.20;91.30
46356;DHT22;32066;49.474;11.106;2023-03-11T01:40:45;4.20;91.20
46356;DHT22;32066;49.474;11.106;2023-03-11T01:43:38;4.00;91.30
46356;DHT22;32066;49.474;11.106;2023-03-11T01:46:17;4.00;91.30
46356;DHT22;32066;49.474;11.106;2023-03-11T01:48:47;4.10;91.20
46356;DHT22;32066;49.474;11.106;2023-03-11T01:51:19;4.10;91.20
46356;DHT22;32066;49.474;11.106;2023-03-11T01:53:50;4.10;91.40
46356;DHT22;32066;49.474;11.106;2023-03-11T01:56:20;4.10;91.70
46356;DHT22;32066;49.474;11.106;2023-03-11T01:58:50;4.10;91.80
46356;DHT22;32066;49.474;11.106;2023-03-11T02:01:23;4.20;91.90
46356;DHT22;32066;49.474;11.106;2023-03-11T02:03:52;4.10;92.10
46356;DHT22;32066;49.474;11.106;2023-03-11T02:06:23;4.00;92.20
46356;DHT22;32066;49.474;11.106;2023-03-11T02:08:53;4.00;92.40
46356;DHT22;32066;49.474;11.106;2023-03-11T02:11:25;4.00;92.60
46356;DHT22;32066;49.474;11.106;2023-03-11T02:13:58;4.00;92.60
46356;DHT22;32066;49.474;11.106;2023-03-11T02:16:29;4.10;92.50
46356;DHT22;32066;49.474;11.106;2023-03-11T02:19:02;4.00;92.70
46356;DHT22;32066;49.474;11.106;2023-03-11T02:21:34;4.10;92.70
46356;DHT22;32066;49.474;11.106;2023-03-11T02:24:07;4.00;92.70
46356;DHT22;32066;49.474;11.106;2023-03-11T02:26:39;3.90;92.90
46356;DHT22;32066;49.474;11.106;2023-03-11T02:29:13;4.00;93.10
46356;DHT22;32066;49.474;11.106;2023-03-11T02:31:42;4.00;93.20
46356;DHT22;32066;49.474;11.106;2023-03-11T02:34:16;3.90;93.20
46356;DHT22;32066;49.474;11.106;2023-03-11T02:36:48;3.80;93.30
46356;DHT22;32066;49.474;11.106;2023-03-11T02:39:28;4.00;93.30
46356;DHT22;32066;49.474;11.106;2023-03-11T02:41:58;4.00;93.40
46356;DHT22;32066;49.474;11.106;2023-03-11T02:44:32;4.00;93.30
46356;DHT22;32066;49.474;11.106;2023-03-11T02:47:01;4.00;93.60
46356;DHT22;32066;49.474;11.106;2023-03-11T02:49:31;3.90;93.50
46356;DHT22;32066;49.474;11.106;2023-03-11T02:52:00;3.90;93.50
46356;DHT22;32066;49.474;11.106;2023-03-11T02:54:30;3.90;93.50
46356;DHT22;32066;49.474;11.106;2023-03-11T02:56:58;3.80;93.60
46356;DHT22;32066;49.474;11.106;2023-03-11T02:59:27;3.70;93.80
46356;DHT22;32066;49.474;11.106;2023-03-11T03:02:00;3.70;93.70
46356;DHT22;32066;49.474;11.106;2023-03-11T03:04:29;3.60;93.90
46356;DHT22;32066;49.474;11.106;2023-03-11T03:06:58;3.60;94.00
46356;DHT22;32066;49.474;11.106;2023-03-11T03:09:27;3.60;94.00
46356;DHT22;32066;49.474;11.106;2023-03-11T03:11:56;3.70;93.90
46356;DHT22;32066;49.474;11.106;2023-03-11T03:14:25;3.70;93.80
46356;DHT22;32066;49.474;11.106;2023-03-11T03:16:54;3.60;93.90
46356;DHT22;32066;49.474;11.106;2023-03-11T03:19:25;3.70;93.70
46356;DHT22;32066;49.474;11.106;2023-03-11T03:21:54;3.60;93.50
46356;DHT22;32066;49.474;11.106;2023-03-11T03:24:23;3.60;93.60
46356;DHT22;32066;49.474;11.106;2023-03-11T03:26:52;3.60;93.70
46356;DHT22;32066;49.474;11.106;2023-03-11T03:29:20;3.60;93.60
46356;DHT22;32066;49.474;11.106;2023-03-11T03:31:50;3.50;93.60
46356;DHT22;32066;49.474;11.106;2023-03-11T03:34:18;3.60;93.40
46356;DHT22;32066;49.474;11.106;2023-03-11T03:36:50;3.50;93.30
46356;DHT22;32066;49.474;11.106;2023-03-11T03:39:18;3.60;93.50
46356;DHT22;32066;49.474;11.106;2023-03-11T03:41:49;3.60;93.30
46356;DHT22;32066;49.474;11.106;2023-03-11T03:44:21;3.60;93.10
46356;DHT22;32066;49.474;11.106;2023-03-11T03:46:49;3.60;92.80
46356;DHT22;32066;49.474;11.106;2023-03-11T03:49:18;3.70;92.80
46356;DHT22;32066;49.474;11.106;2023-03-11T03:51:50;3.60;92.70
46356;DHT22;32066;49.474;11.106;2023-03-11T03:54:27;3.60;92.70
46356;DHT22;32066;49.474;11.106;2023-03-11T03:56:56;3.60;92.60
46356;DHT22;32066;49.474;11.106;2023-03-11T03:59:25;3.60;92.60
46356;DHT22;32066;49.474;11.106;2023-03-11T04:01:56;3.60;92.70
46356;DHT22;32066;49.474;11.106;2023-03-11T04:04:27;3.60;92.60
46356;DHT22;32066;49.474;11.106;2023-03-11T04:06:59;3.60;92.60
46356;DHT22;32066;49.474;11.106;2023-03-11T04:09:28;3.60;92.50
46356;DHT22;32066;49.474;11.106;2023-03-11T04:11:57;3.60;92.40
46356;DHT22;32066;49.474;11.106;2023-03-11T04:14:26;3.40;92.50
46356;DHT22;32066;49.474;11.106;2023-03-11T04:16:58;3.40;92.70
46356;DHT22;32066;49.474;11.106;2023-03-11T04:19:27;3.40;92.70
46356;DHT22;32066;49.474;11.106;2023-03-11T04:21:59;3.40;92.50
46356;DHT22;32066;49.474;11.106;2023-03-11T04:24:28;3.40;92.50
46356;DHT22;32066;49.474;11.106;2023-03-11T04:26:56;3.40;92.40
46356;DHT22;32066;49.474;11.106;2023-03-11T04:29:25;3.50;92.40
46356;DHT22;32066;49.474;11.106;2023-03-11T04:31:54;3.50;92.30
46356;DHT22;32066;49.474;11.106;2023-03-11T04:34:22;3.50;92.50
46356;DHT22;32066;49.474;11.106;2023-03-11T04:36:51;3.40;92.50
46356;DHT22;32066;49.474;11.106;2023-03-11T04:39:28;3.50;92.40
46356;DHT22;32066;49.474;11.106;2023-03-11T04:41:57;3.50;92.50
46356;DHT22;32066;49.474;11.106;2023-03-11T04:44:27;3.50;92.40
46356;DHT22;32066;49.474;11.106;2023-03-11T04:46:56;3.50;92.20
46356;DHT22;32066;49.474;11.106;2023-03-11T04:49:24;3.40;92.40
46356;DHT22;32066;49.474;11.106;2023-03-11T04:51:54;3.40;92.30
46356;DHT22;32066;49.474;11.106;2023-03-11T04:54:24;3.40;92.50
46356;DHT22;32066;49.474;11.106;2023-03-11T04:56:55;3.40;92.50
46356;DHT22;32066;49.474;11.106;2023-03-11T04:59:24;3.30;92.70
46356;DHT22;32066;49.474;11.106;2023-03-11T05:01:53;3.30;92.70
46356;DHT22;32066;49.474;11.106;2023-03-11T05:04:21;3.30;92.90
46356;DHT22;32066;49.474;11.106;2023-03-11T05:06:50;3.40;92.80
46356;DHT22;32066;49.474;11.106;2023-03-11T05:09:22;3.40;92.80
46356;DHT22;32066;49.474;11.106;2023-03-11T05:11:51;3.40;93.00
46356;DHT22;32066;49.474;11.106;2023-03-11T05:14:22;3.40;92.90
46356;DHT22;32066;49.474;11.106;2023-03-11T05:16:52;3.50;92.90
46356;DHT22;32066;49.474;11.106;2023-03-11T05:19:20;3.50;93.00
46356;DHT22;32066;49.474;11.106;2023-03-11T05:22:04;3.50;93.10
46356;DHT22;32066;49.474;11.106;2023-03-11T05:24:33;3.40;93.00
46356;DHT22;32066;49.474;11.106;2023-03-11T05:27:03;3.40;93.10
46356;DHT22;32066;49.474;11.106;2023-03-11T05:29:36;3.40;93.00
46356;DHT22;32066;49.474;11.106;2023-03-11T05:32:07;3.50;93.00
46356;DHT22;32066;49.474;11.106;2023-03-11T05:34:36;3.30;93.10
46356;DHT22;32066;49.474;11.106;2023-03-11T05:37:05;3.40;93.20
46356;DHT22;32066;49.474;11.106;2023-03-11T05:39:34;3.50;93.20
46356;DHT22;32066;49.474;11.106;2023-03-11T05:42:03;3.50;93.20
46356;DHT22;32066;49.474;11.106;2023-03-11T05:44:35;3.50;93.10
46356;DHT22;32066;49.474;11.106;2023-03-11T05:47:04;3.50;93.10
46356;DHT22;32066;49.474;11.106;2023-03-11T05:49:34;3.50;93.00
46356;DHT22;32066;49.474;11.106;2023-03-11T05:52:03;3.50;93.10
46356;DHT22;32066;49.474;11.106;2023-03-11T05:54:32;3.50;93.20
46356;DHT22;32066;49.474;11.106;2023-03-11T05:57:01;3.50;93.20
46356;DHT22;32066;49.474;11.106;2023-03-11T05:59:31;3.50;93.10
46356;DHT22;32066;49.474;11.106;2023-03-11T06:02:06;3.50;93.00
46356;DHT22;32066;49.474;11.106;2023-03-11T06:04:35;3.50;93.20
46356;DHT22;32066;49.474;11.106;2023-03-11T06:07:04;3.60;93.20
46356;DHT22;32066;49.474;11.106;2023-03-11T06:09:36;3.40;93.20
46356;DHT22;32066;49.474;11.106;2023-03-11T06:12:09;3.50;93.30
46356;DHT22;32066;49.474;11.106;2023-03-11T06:15:00;3.50;93.20
46356;DHT22;32066;49.474;11.106;2023-03-11T06:17:31;3.50;93.30
46356;DHT22;32066;49.474;11.106;2023-03-11T06:20:00;3.50;93.20
46356;DHT22;32066;49.474;11.106;2023-03-11T06:22:30;3.50;93.20
46356;DHT22;32066;49.474;11.106;2023-03-11T06:24:59;3.50;93.20
46356;DHT22;32066;49.474;11.106;2023-03-11T06:27:30;3.60;93.20
46356;DHT22;32066;49.474;11.106;2023-03-11T06:29:58;3.60;92.90
46356;DHT22;32066;49.474;11.106;2023-03-11T06:32:33;3.60;92.90
46356;DHT22;32066;49.474;11.106;2023-03-11T06:35:02;3.60;92.80
46356;DHT22;32066;49.474;11.106;2023-03-11T06:37:34;3.50;92.90
46356;DHT22;32066;49.474;11.106;2023-03-11T06:40:04;3.40;93.00
46356;DHT22;32066;49.474;11.106;2023-03-11T06:42:34;3.50;93.00
46356;DHT22;32066;49.474;11.106;2023-03-11T06:45:04;3.50;92.90
46356;DHT22;32066;49.474;11.106;2023-03-11T06:47:36;3.50;92.90
46356;DHT22;32066;49.474;11.106;2023-03-11T06:50:06;3.50;93.00
46356;DHT22;32066;49.474;11.106;2023-03-11T06:52:35;3.60;92.90
46356;DHT22;32066;49.474;11.106;2023-03-11T06:55:07;3.60;92.80
46356;DHT22;32066;49.474;11.106;2023-03-11T06:57:36;3.60;92.90
46356;DHT22;32066;49.474;11.106;2023-03-11T07:00:09;3.70;92.90
46356;DHT22;32066;49.474;11.106;2023-03-11T07:02:45;3.70;92.90
46356;DHT22;32066;49.474;11.106;2023-03-11T07:05:16;3.70;92.90
46356;DHT22;32066;49.474;11.106;2023-03-11T07:07:46;3.70;92.90
46356;DHT22;32066;49.474;11.106;2023-03-11T07:10:14;3.60;93.00
46356;DHT22;32066;49.474;11.106;2023-03-11T07:12:43;3.50;93.10
46356;DHT22;32066;49.474;11.106;2023-03-11T07:15:12;3.70;93.10
46356;DHT22;32066;49.474;11.106;2023-03-11T07:17:41;3.80;93.00
46356;DHT22;32066;49.474;11.106;2023-03-11T07:20:13;3.80;93.00
46356;DHT22;32066;49.474;11.106;2023-03-11T07:22:41;3.90;93.00
46356;DHT22;32066;49.474;11.106;2023-03-11T07:25:10;3.90;93.00
46356;DHT22;32066;49.474;11.106;2023-03-11T07:27:39;3.90;92.90
46356;DHT22;32066;49.474;11.106;2023-03-11T07:30:09;4.00;92.90
46356;DHT22;32066;49.474;11.106;2023-03-11T07:32:38;3.90;93.00
46356;DHT22;32066;49.474;11.106;2023-03-11T07:35:07;4.00;92.90
46356;DHT22;32066;49.474;11.106;2023-03-11T07:37:38;4.00;92.90
46356;DHT22;32066;49.474;11.106;2023-03-11T07:40:09;4.00;93.00
46356;DHT22;32066;49.474;11.106;2023-03-11T07:42:38;4.00;92.80
46356;DHT22;32066;49.474;11.106;2023-03-11T07:45:08;4.00;92.80
46356;DHT22;32066;49.474;11.106;2023-03-11T07:47:37;4.00;92.80
46356;DHT22;32066;49.474;11.106;2023-03-11T07:50:06;3.90;92.80
46356;DHT22;32066;49.474;11.106;2023-03-11T07:52:38;4.00;92.60
46356;DHT22;32066;49.474;11.106;2023-03-11T07:55:07;3.90;92.70
46356;DHT22;32066;49.474;11.106;2023-03-11T07:57:36;3.90;92.90
46356;DHT22;32066;49.474;11.106;2023-03-11T08:00:05;4.00;92.80
46356;DHT22;32066;49.474;11.106;2023-03-11T08:02:37;3.90;92.70
46356;DHT22;32066;49.474;11.106;2023-03-11T08:05:06;3.90;92.80
46356;DHT22;32066;49.474;11.106;2023-03-11T08:07:38;4.00;92.50
46356;DHT22;32066;49.474;11.106;2023-03-11T08:10:07;3.90;92.50
46356;DHT22;32066;49.474;11.106;2023-03-11T08:12:36;3.90;92.60
46356;DHT22;32066;49.474;11.106;2023-03-11T08:15:07;4.00;92.40
46356;DHT22;32066;49.474;11.106;2023-03-11T08:17:35;4.10;92.40
46356;DHT22;32066;49.474;11.106;2023-03-11T08:20:05;4.10;92.40
46356;DHT22;32066;49.474;11.106;2023-03-11T08:22:38;4.10;92.40
46356;DHT22;32066;49.474;11.106;2023-03-11T08:25:07;4.10;92.40
46356;DHT22;32066;49.474;11.106;2023-03-11T08:27:36;4.20;92.40
46356;DHT22;32066;49.474;11.106;2023-03-11T08:30:06;4.10;92.40
46356;DHT22;32066;49.474;11.106;2023-03-11T08:32:35;4.20;92.50
46356;DHT22;32066;49.474;11.106;2023-03-11T08:35:04;4.30;92.50
46356;DHT22;32066;49.474;11.106;2023-03-11T08:37:33;4.30;91.90
46356;DHT22;32066;49.474;11.106;2023-03-11T08:40:05;4.40;91.60
46356;DHT22;32066;49.474;11.106;2023-03-11T08:42:35;4.50;91.50
46356;DHT22;32066;49.474;11.106;2023-03-11T08:45:05;4.60;91.30
46356;DHT22;32066;49.474;11.106;2023-03-11T08:47:34;4.60;90.90
46356;DHT22;32066;49.474;11.106;2023-03-11T08:50:03;4.80;90.80
46356;DHT22;32066;49.474;11.106;2023-03-11T08:52:32;5.00;90.50
46356;DHT22;32066;49.474;11.106;2023-03-11T08:55:00;5.10;90.10
46356;DHT22;32066;49.474;11.106;2023-03-11T08:57:32;5.10;89.40
46356;DHT22;32066;49.474;11.106;2023-03-11T09:00:03;5.30;90.10
46356;DHT22;32066;49.474;11.106;2023-03-11T09:02:32;5.30;88.70
46356;DHT22;32066;49.474;11.106;2023-03-11T09:05:00;5.40;87.70
46356;DHT22;32066;49.474;11.106;2023-03-11T09:07:29;5.40;87.80
46356;DHT22;32066;49.474;11.106;2023-03-11T09:09:58;5.50;87.90
46356;DHT22;32066;49.474;11.106;2023-03-11T09:12:26;5.60;86.20
46356;DHT22;32066;49.474;11.106;2023-03-11T09:14:57;5.70;85.70
46356;DHT22;32066;49.474;11.106;2023-03-11T09:17:26;5.60;85.30
46356;DHT22;32066;49.474;11.106;2023-03-11T09:19:55;5.60;85.00
46356;DHT22;32066;49.474;11.106;2023-03-11T09:22:24;5.70;84.60
46356;DHT22;32066;49.474;11.106;2023-03-11T09:24:52;5.90;84.00
46356;DHT22;32066;49.474;11.106;2023-03-11T09:27:21;6.00;83.20
46356;DHT22;32066;49.474;11.106;2023-03-11T09:29:50;5.60;83.00
46356;DHT22;32066;49.474;11.106;2023-03-11T09:32:21;5.50;83.10
46356;DHT22;32066;49.474;11.106;2023-03-11T09:34:50;5.60;83.40
46356;DHT22;32066;49.474;11.106;2023-03-11T09:37:18;5.50;83.30
46356;DHT22;32066;49.474;11.106;2023-03-11T09:39:47;5.60;83.60
46356;DHT22;32066;49.474;11.106;2023-03-11T09:42:19;5.60;84.20
46356;DHT22;32066;49.474;11.106;2023-03-11T09:44:55;5.60;84.70
46356;DHT22;32066;49.474;11.106;2023-03-11T09:47:36;5.50;84.30
46356;DHT22;32066;49.474;11.106;2023-03-11T09:50:14;5.30;85.60
46356;DHT22;32066;49.474;11.106;2023-03-11T09:52:52;5.30;86.60
46356;DHT22;32066;49.474;11.106;2023-03-11T09:55:33;5.30;87.10
46356;DHT22;32066;49.474;11.106;2023-03-11T09:58:09;5.30;87.20
46356;DHT22;32066;49.474;11.106;2023-03-11T10:00:38;5.40;86.30
46356;DHT22;32066;49.474;11.106;2023-03-11T10:03:21;5.30;86.00
46356;DHT22;32066;49.474;11.106;2023-03-11T10:05:54;5.40;85.30
46356;DHT22;32066;49.474;11.106;2023-03-11T10:08:29;5.40;83.90
46356;DHT22;32066;49.474;11.106;2023-03-11T10:11:06;5.30;83.40
46356;DHT22;32066;49.474;11.106;2023-03-11T10:13:43;5.20;86.90
46356;DHT22;32066;49.474;11.106;2023-03-11T10:16:19;5.10;88.80
46356;DHT22;32066;49.474;11.106;2023-03-11T10:18:58;4.90;90.50
46356;DHT22;32066;49.474;11.106;2023-03-11T10:21:38;4.80;91.60
46356;DHT22;32066;49.474;11.106;2023-03-11T10:24:16;4.70;92.30
46356;DHT22;32066;49.474;11.106;2023-03-11T10:26:49;4.60;93.10
46356;DHT22;32066;49.474;11.106;2023-03-11T10:29:22;4.70;93.30
46356;DHT22;32066;49.474;11.106;2023-03-11T10:31:56;5.00;93.20
46356;DHT22;32066;49.474;11.106;2023-03-11T10:34:34;5.20;93.00
46356;DHT22;32066;49.474;11.106;2023-03-11T10:37:11;5.30;92.40
46356;DHT22;32066;49.474;11.106;2023-03-11T10:39:41;5.50;92.20
46356;DHT22;32066;49.474;11.106;2023-03-11T10:42:12;5.70;92.50
46356;DHT22;32066;49.474;11.106;2023-03-11T10:44:42;5.90;92.30
46356;DHT22;32066;49.474;11.106;2023-03-11T10:47:16;5.90;91.20
46356;DHT22;32066;49.474;11.106;2023-03-11T10:49:47;5.80;91.00
46356;DHT22;32066;49.474;11.106;2023-03-11T10:52:17;5.60;90.90
46356;DHT22;32066;49.474;11.106;2023-03-11T10:54:48;5.60;91.10
46356;DHT22;32066;49.474;11.106;2023-03-11T10:57:27;5.70;90.90
46356;DHT22;32066;49.474;11.106;2023-03-11T10:59:57;5.80;90.70
46356;DHT22;32066;49.474;11.106;2023-03-11T11:02:28;5.80;90.50
46356;DHT22;32066;49.474;11.106;2023-03-11T11:05:19;5.70;89.70
46356;DHT22;32066;49.474;11.106;2023-03-11T11:07:51;5.70;89.70
46356;DHT22;32066;49.474;11.106;2023-03-11T11:10:30;6.00;89.60
46356;DHT22;32066;49.474;11.106;2023-03-11T11:13:00;6.20;88.80
46356;DHT22;32066;49.474;11.106;2023-03-11T11:20:33;6.50;83.50
46356;DHT22;32066;49.474;11.106;2023-03-11T11:23:24;6.40;79.00
46356;DHT22;32066;49.474;11.106;2023-03-11T11:25:57;6.40;77.70
46356;DHT22;32066;49.474;11.106;2023-03-11T11:28:26;6.30;78.40
46356;DHT22;32066;49.474;11.106;2023-03-11T11:30:58;6.30;79.60
46356;DHT22;32066;49.474;11.106;2023-03-11T11:33:30;6.20;80.20
46356;DHT22;32066;49.474;11.106;2023-03-11T11:36:03;6.20;80.00
46356;DHT22;32066;49.474;11.106;2023-03-11T11:38:32;6.20;80.00
46356;DHT22;32066;49.474;11.106;2023-03-11T11:41:02;6.20;79.90
46356;DHT22;32066;49.474;11.106;2023-03-11T11:43:43;6.20;80.80
46356;DHT22;32066;49.474;11.106;2023-03-11T11:46:20;6.30;82.00
46356;DHT22;32066;49.474;11.106;2023-03-11T11:48:57;6.40;82.70
46356;DHT22;32066;49.474;11.106;2023-03-11T11:51:35;6.50;82.90
46356;DHT22;32066;49.474;11.106;2023-03-11T11:54:08;6.70;82.40
46356;DHT22;32066;49.474;11.106;2023-03-11T11:56:42;6.80;81.70
46356;DHT22;32066;49.474;11.106;2023-03-11T11:59:15;7.00;80.40
46356;DHT22;32066;49.474;11.106;2023-03-11T12:01:52;7.10;79.70
46356;DHT22;32066;49.474;11.106;2023-03-11T12:04:47;7.20;79.00
46356;DHT22;32066;49.474;11.106;2023-03-11T12:07:40;7.30;78.90
46356;DHT22;32066;49.474;11.106;2023-03-11T12:10:17;7.50;78.80
46356;DHT22;32066;49.474;11.106;2023-03-11T12:15:48;7.60;77.30
46356;DHT22;32066;49.474;11.106;2023-03-11T12:18:20;7.50;78.20
46356;DHT22;32066;49.474;11.106;2023-03-11T12:20:53;7.30;78.20
46356;DHT22;32066;49.474;11.106;2023-03-11T12:23:43;7.20;78.80
46356;DHT22;32066;49.474;11.106;2023-03-11T12:26:22;7.20;78.20
46356;DHT22;32066;49.474;11.106;2023-03-11T12:28:54;7.10;78.40
46356;DHT22;32066;49.474;11.106;2023-03-11T12:31:27;7.10;78.00
46356;DHT22;32066;49.474;11.106;2023-03-11T12:33:59;7.00;78.30
46356;DHT22;32066;49.474;11.106;2023-03-11T12:36:30;7.10;77.80
46356;DHT22;32066;49.474;11.106;2023-03-11T12:39:04;7.10;77.10
46356;DHT22;32066;49.474;11.106;2023-03-11T12:41:34;6.90;78.10
46356;DHT22;32066;49.474;11.106;2023-03-11T12:44:20;6.90;78.30
46356;DHT22;32066;49.474;11.106;2023-03-11T12:52:52;6.70;79.00
46356;DHT22;32066;49.474;11.106;2023-03-11T12:55:33;6.70;78.70
46356;DHT22;32066;49.474;11.106;2023-03-11T13:04:19;6.80;75.50
46356;DHT22;32066;49.474;11.106;2023-03-11T13:16:37;6.80;74.40
46356;DHT22;32066;49.474;11.106;2023-03-11T13:25:30;6.90;74.80
46356;DHT22;32066;49.474;11.106;2023-03-11T13:28:13;6.80;74.80
46356;DHT22;32066;49.474;11.106;2023-03-11T13:30:50;6.70;74.70
46356;DHT22;32066;49.474;11.106;2023-03-11T13:33:32;6.60;75.30
46356;DHT22;32066;49.474;11.106;2023-03-11T13:36:12;6.60;74.40
46356;DHT22;32066;49.474;11.106;2023-03-11T13:39:21;6.40;75.10
46356;DHT22;32066;49.474;11.106;2023-03-11T13:41:52;6.40;74.80
46356;DHT22;32066;49.474;11.106;2023-03-11T13:44:26;6.30;73.70
46356;DHT22;32066;49.474;11.106;2023-03-11T13:46:59;6.30;74.30
46356;DHT22;32066;49.474;11.106;2023-03-11T13:49:37;6.30;74.20
46356;DHT22;32066;49.474;11.106;2023-03-11T13:52:08;6.20;73.50
46356;DHT22;32066;49.474;11.106;2023-03-11T13:54:45;6.20;73.50
46356;DHT22;32066;49.474;11.106;2023-03-11T13:57:25;6.10;73.70
46356;DHT22;32066;49.474;11.106;2023-03-11T13:59:55;6.00;74.10
46356;DHT22;32066;49.474;11.106;2023-03-11T14:02:25;6.00;73.90
46356;DHT22;32066;49.474;11.106;2023-03-11T14:05:03;6.10;74.10
46356;DHT22;32066;49.474;11.106;2023-03-11T14:07:33;6.10;73.70
46356;DHT22;32066;49.474;11.106;2023-03-11T14:10:22;6.10;72.90
46356;DHT22;32066;49.474;11.106;2023-03-11T14:13:04;6.00;72.30
46356;DHT22;32066;49.474;11.106;2023-03-11T14:15:41;6.00;73.00
46356;DHT22;32066;49.474;11.106;2023-03-11T14:18:33;5.90;72.00
46356;DHT22;32066;49.474;11.106;2023-03-11T14:21:10;5.90;72.10
46356;DHT22;32066;49.474;11.106;2023-03-11T14:23:41;5.90;72.20
46356;DHT22;32066;49.474;11.106;2023-03-11T14:26:13;5.90;72.20
46356;DHT22;32066;49.474;11.106;2023-03-11T14:28:47;6.00;72.80
46356;DHT22;32066;49.474;11.106;2023-03-11T14:31:29;6.00;73.60
46356;DHT22;32066;49.474;11.106;2023-03-11T14:33:59;5.90;74.10
46356;DHT22;32066;49.474;11.106;2023-03-11T14:36:42;5.90;74.60
46356;DHT22;32066;49.474;11.106;2023-03-11T14:39:26;6.00;74.90
46356;DHT22;32066;49.474;11.106;2023-03-11T14:42:00;6.00;75.10
46356;DHT22;32066;49.474;11.106;2023-03-11T14:44:32;6.10;74.90
46356;DHT22;32066;49.474;11.106;2023-03-11T14:47:08;6.20;75.10
46356;DHT22;32066;49.474;11.106;2023-03-11T14:49:38;6.40;75.10
46356;DHT22;32066;49.474;11.106;2023-03-11T14:52:14;6.40;75.10
46356;DHT22;32066;49.474;11.106;2023-03-11T14:54:46;6.50;75.10
46356;DHT22;32066;49.474;11.106;2023-03-11T14:57:20;6.60;74.90
46356;DHT22;32066;49.474;11.106;2023-03-11T14:59:51;6.70;74.70
46356;DHT22;32066;49.474;11.106;2023-03-11T15:02:32;6.70;74.70
46356;DHT22;32066;49.474;11.106;2023-03-11T15:05:07;6.70;74.60
46356;DHT22;32066;49.474;11.106;2023-03-11T15:07:40;6.60;74.30
46356;DHT22;32066;49.474;11.106;2023-03-11T15:10:10;6.60;74.10
46356;DHT22;32066;49.474;11.106;2023-03-11T15:12:41;6.60;74.50
46356;DHT22;32066;49.474;11.106;2023-03-11T15:15:22;6.50;74.80
46356;DHT22;32066;49.474;11.106;2023-03-11T15:17:52;6.50;74.90
46356;DHT22;32066;49.474;11.106;2023-03-11T15:20:24;6.50;74.90
46356;DHT22;32066;49.474;11.106;2023-03-11T15:22:57;6.50;74.80
46356;DHT22;32066;49.474;11.106;2023-03-11T15:25:30;6.60;74.70
46356;DHT22;32066;49.474;11.106;2023-03-11T15:28:12;6.50;75.00
46356;DHT22;32066;49.474;11.106;2023-03-11T15:30:41;6.50;75.20
46356;DHT22;32066;49.474;11.106;2023-03-11T15:33:20;6.50;75.40
46356;DHT22;32066;49.474;11.106;2023-03-11T15:35:49;6.50;75.10
46356;DHT22;32066;49.474;11.106;2023-03-11T15:38:23;6.60;74.50
46356;DHT22;32066;49.474;11.106;2023-03-11T15:40:54;6.50;74.30
46356;DHT22;32066;49.474;11.106;2023-03-11T15:43:26;6.40;75.40
46356;DHT22;32066;49.474;11.106;2023-03-11T15:45:56;6.30;74.90
46356;DHT22;32066;49.474;11.106;2023-03-11T15:48:26;6.40;74.90
46356;DHT22;32066;49.474;11.106;2023-03-11T15:50:57;6.40;74.30
46356;DHT22;32066;49.474;11.106;2023-03-11T15:53:29;6.40;74.00
46356;DHT22;32066;49.474;11.106;2023-03-11T15:56:02;6.40;73.80
46356;DHT22;32066;49.474;11.106;2023-03-11T15:58:35;6.20;74.00
46356;DHT22;32066;49.474;11.106;2023-03-11T16:01:05;6.20;73.90
46356;DHT22;32066;49.474;11.106;2023-03-11T16:03:33;6.30;74.30
46356;DHT22;32066;49.474;11.106;2023-03-11T16:06:03;6.20;74.50
46356;DHT22;32066;49.474;11.106;2023-03-11T16:08:34;6.30;74.40
46356;DHT22;32066;49.474;11.106;2023-03-11T16:11:03;6.20;74.60
46356;DHT22;32066;49.474;11.106;2023-03-11T16:13:32;6.20;74.60
46356;DHT22;32066;49.474;11.106;2023-03-11T16:16:00;6.20;74.60
46356;DHT22;32066;49.474;11.106;2023-03-11T16:18:29;6.10;75.10
46356;DHT22;32066;49.474;11.106;2023-03-11T16:20:58;6.00;75.20
46356;DHT22;32066;49.474;11.106;2023-03-11T16:23:30;6.20;75.40
46356;DHT22;32066;49.474;11.106;2023-03-11T16:26:04;6.20;74.60
46356;DHT22;32066;49.474;11.106;2023-03-11T16:28:33;6.10;74.50
46356;DHT22;32066;49.474;11.106;2023-03-11T16:31:02;6.00;74.70
46356;DHT22;32066;49.474;11.106;2023-03-11T16:33:32;6.00;74.90
46356;DHT22;32066;49.474;11.106;2023-03-11T16:36:01;5.90;74.40